Time;durP1;ratioP1;P1;durP2;ratioP2;P2;SDS_P1;SDS_P2;PMS_P1;PMS_P2;Temp;Humidity;BMP_temperature;BMP_pressure;BME280_temperature;BME280_humidity;BME280_pressure;Samples;Min_cycle;Max_cycle;Signal;HPM_P1;HPM_P2
2023/08/14 00:00:23;;;;;;;7.38;6.00;;;14.30;99.90;;;;;;5001801;28;20061;-71
2023/08/14 00:02:49;;;;;;;10.02;6.45;;;14.30;99.90;;;;;;5001441;28;20785;-72
2023/08/14 00:05:15;;;;;;;10.07;6.15;;;14.30;99.90;;;;;;4985479;28;20049;-72
2023/08/14 00:07:41;;;;;;;7.95;6.65;;;14.40;99.90;;;;;;4985414;28;20061;-73
2023/08/14 00:10:07;;;;;;;12.65;7.90;;;14.50;99.90;;;;;;4985368;28;20136;-72
2023/08/14 00:12:33;;;;;;;12.18;7.10;;;14.40;99.90;;;;;;5001368;28;20204;-72
2023/08/14 00:14:58;;;;;;;10.73;7.32;;;14.40;99.90;;;;;;5001366;28;20655;-72
2023/08/14 00:17:24;;;;;;;10.82;7.07;;;14.40;99.90;;;;;;4969165;28;20062;-72
2023/08/14 00:19:50;;;;;;;9.88;6.88;;;14.40;99.90;;;;;;4995521;28;20088;-72
2023/08/14 00:22:16;;;;;;;10.52;6.93;;;14.40;99.90;;;;;;4995527;28;20156;-72
2023/08/14 00:24:41;;;;;;;12.52;6.95;;;14.30;99.90;;;;;;4997699;28;20049;-71
2023/08/14 00:27:07;;;;;;;11.35;6.32;;;14.20;99.90;;;;;;4998141;28;20058;-73
2023/08/14 00:29:33;;;;;;;12.73;7.47;;;14.20;99.90;;;;;;4981581;28;20057;-71
2023/08/14 00:31:58;;;;;;;12.23;8.35;;;14.20;99.90;;;;;;4981493;28;20069;-72
2023/08/14 00:34:24;;;;;;;11.65;7.90;;;14.30;99.90;;;;;;4981938;28;20650;-71
2023/08/14 00:36:50;;;;;;;12.35;7.75;;;14.30;99.90;;;;;;4997520;28;20085;-71
2023/08/14 00:39:16;;;;;;;7.75;6.95;;;14.30;99.90;;;;;;4997554;28;20061;-71
2023/08/14 00:41:42;;;;;;;10.18;7.75;;;14.30;99.90;;;;;;4997444;28;20046;-71
2023/08/14 00:44:07;;;;;;;9.80;7.32;;;14.60;99.90;;;;;;4974291;28;20061;-72
2023/08/14 00:46:33;;;;;;;11.98;8.10;;;14.20;99.90;;;;;;4981396;28;20060;-72
2023/08/14 00:48:59;;;;;;;12.73;8.23;;;14.30;99.90;;;;;;4997680;28;20088;-71
2023/08/14 00:51:26;;;;;;;13.60;7.72;;;14.30;99.90;;;;;;4980971;28;20140;-71
2023/08/14 00:53:54;;;;;;;12.30;8.18;;;14.30;99.90;;;;;;4997454;28;20053;-71
2023/08/14 00:56:20;;;;;;;5.03;4.35;;;14.30;99.90;;;;;;4987480;28;20062;-72
2023/08/14 00:58:47;;;;;;;9.10;4.18;;;14.30;99.90;;;;;;4997449;28;20050;-71
2023/08/14 01:01:14;;;;;;;6.93;4.40;;;14.30;99.90;;;;;;4997367;28;20148;-72
2023/08/14 01:03:39;;;;;;;5.25;4.20;;;14.20;99.90;;;;;;4981015;28;20715;-71
2023/08/14 01:06:05;;;;;;;7.30;5.38;;;14.20;99.90;;;;;;4974849;28;20058;-72
2023/08/14 01:08:32;;;;;;;8.73;5.20;;;14.10;99.90;;;;;;4996585;28;20046;-72
2023/08/14 01:11:06;;;;;;;7.43;5.43;;;14.10;99.90;;;;;;4993418;28;20049;-71
2023/08/14 01:14:04;;;;;;;10.25;6.35;;;14.10;99.90;;;;;;4996353;28;20763;-72
2023/08/14 01:16:35;;;;;;;10.60;7.15;;;14.00;99.90;;;;;;4986019;28;20053;-72
2023/08/14 01:19:09;;;;;;;10.63;7.68;;;14.00;99.90;;;;;;4985887;28;20139;-71
2023/08/14 01:21:44;;;;;;;13.90;8.15;;;14.00;99.90;;;;;;4992243;28;20104;-72
2023/08/14 01:24:22;;;;;;;14.00;9.05;;;14.00;99.90;;;;;;5001022;28;20049;-70
2023/08/14 01:26:50;;;;;;;15.52;8.00;;;13.90;99.90;;;;;;5000718;28;20060;-71
2023/08/14 01:29:16;;;;;;;12.60;8.00;;;13.90;99.90;;;;;;4973197;28;20873;-72
2023/08/14 01:31:41;;;;;;;14.38;9.43;;;13.90;99.90;;;;;;5001755;28;20049;-71
2023/08/14 01:34:07;;;;;;;14.35;9.15;;;13.90;99.90;;;;;;4985120;28;20049;-71
2023/08/14 01:36:35;;;;;;;14.48;8.90;;;13.70;99.90;;;;;;5000984;28;20049;-71
2023/08/14 01:39:10;;;;;;;13.70;8.40;;;13.90;99.90;;;;;;5000285;28;20050;-71
2023/08/14 01:42:05;;;;;;;13.05;8.38;;;13.90;99.90;;;;;;4999532;28;20128;-72
2023/08/14 01:44:32;;;;;;;14.07;8.80;;;13.80;99.90;;;;;;5000213;28;20057;-69
2023/08/14 01:47:00;;;;;;;15.15;9.63;;;13.90;99.90;;;;;;4980391;28;20061;-71
2023/08/14 01:49:30;;;;;;;16.00;9.10;;;13.90;99.90;;;;;;5004100;28;20128;-70
2023/08/14 01:51:57;;;;;;;11.23;7.55;;;13.90;99.90;;;;;;5000270;28;20141;-71
2023/08/14 01:54:23;;;;;;;7.75;6.63;;;13.80;99.90;;;;;;4970921;28;20138;-71
2023/08/14 01:56:48;;;;;;;11.80;5.28;;;13.80;99.90;;;;;;4983382;28;20742;-71
2023/08/14 01:59:14;;;;;;;7.40;5.68;;;13.80;99.90;;;;;;4999959;28;20060;-71
2023/08/14 02:01:40;;;;;;;12.18;7.60;;;13.70;99.90;;;;;;4999319;28;20045;-70
2023/08/14 02:04:07;;;;;;;18.45;9.65;;;13.60;99.90;;;;;;4999818;28;20045;-71
2023/08/14 02:06:33;;;;;;;14.50;9.20;;;13.50;99.90;;;;;;4999764;28;20144;-71
2023/08/14 02:08:59;;;;;;;15.15;9.57;;;13.60;99.90;;;;;;4999001;28;20063;-71
2023/08/14 02:11:25;;;;;;;12.75;8.88;;;13.60;99.90;;;;;;4998641;28;20065;-71
2023/08/14 02:13:50;;;;;;;16.48;9.70;;;13.60;99.90;;;;;;4999818;28;20637;-70
2023/08/14 02:16:16;;;;;;;7.40;5.93;;;13.60;99.90;;;;;;4999565;28;20056;-71
2023/08/14 02:18:42;;;;;;;6.25;5.50;;;13.60;99.90;;;;;;4996061;28;20120;-70
2023/08/14 02:21:08;;;;;;;8.45;6.15;;;13.50;99.90;;;;;;4994682;28;20042;-71
2023/08/14 02:23:33;;;;;;;9.63;6.80;;;13.50;99.90;;;;;;4983765;28;20085;-71
2023/08/14 02:26:00;;;;;;;13.38;8.95;;;13.40;99.90;;;;;;5000102;28;20057;-71
2023/08/14 02:28:26;;;;;;;11.32;9.57;;;13.40;99.90;;;;;;4983688;28;20084;-71
2023/08/14 02:30:52;;;;;;;12.35;8.32;;;13.40;99.90;;;;;;5000312;28;20054;-74
2023/08/14 02:33:17;;;;;;;15.75;9.65;;;13.40;99.90;;;;;;4991368;28;20696;-70
2023/08/14 02:35:43;;;;;;;10.60;8.00;;;13.40;99.90;;;;;;5000179;28;20590;-71
2023/08/14 02:38:09;;;;;;;15.23;7.78;;;13.40;99.90;;;;;;4994359;28;20137;-71
2023/08/14 02:40:36;;;;;;;10.10;4.93;;;13.30;99.90;;;;;;5000564;28;20168;-72
2023/08/14 02:43:02;;;;;;;10.20;6.28;;;13.30;99.90;;;;;;4983873;28;20042;-71
2023/08/14 02:45:29;;;;;;;10.25;6.05;;;13.30;99.90;;;;;;5000177;28;20088;-71
2023/08/14 02:47:54;;;;;;;11.85;5.95;;;13.20;99.90;;;;;;5000165;28;20152;-70
2023/08/14 02:50:21;;;;;;;9.57;5.82;;;13.20;99.90;;;;;;4999620;28;20060;-71
2023/08/14 02:52:50;;;;;;;11.15;6.22;;;13.00;99.90;;;;;;4978345;28;20085;-70
2023/08/14 02:55:16;;;;;;;9.07;6.93;;;13.10;99.90;;;;;;4999525;28;20050;-70
2023/08/14 02:57:42;;;;;;;7.15;6.13;;;13.00;99.90;;;;;;4999346;28;20050;-70
2023/08/14 03:00:09;;;;;;;10.35;6.70;;;13.00;99.90;;;;;;4978790;28;20050;-70
2023/08/14 03:02:35;;;;;;;17.33;8.90;;;12.90;99.90;;;;;;4999334;28;20132;-70
2023/08/14 03:05:01;;;;;;;15.15;9.80;;;12.90;99.90;;;;;;4982968;28;20056;-71
2023/08/14 03:07:27;;;;;;;14.35;8.93;;;12.90;99.90;;;;;;4999424;28;20539;-71
2023/08/14 03:09:53;;;;;;;16.67;9.55;;;12.90;99.90;;;;;;4983439;28;20049;-70
2023/08/14 03:12:19;;;;;;;12.82;9.13;;;12.90;99.90;;;;;;4998997;28;20451;-71
2023/08/14 03:14:45;;;;;;;15.23;9.30;;;12.90;99.90;;;;;;4999876;28;20049;-71
2023/08/14 03:17:10;;;;;;;16.52;10.63;;;12.80;99.90;;;;;;5002697;28;20060;-71
2023/08/14 03:19:36;;;;;;;23.55;12.00;;;12.90;99.90;;;;;;5006120;28;20053;-71
2023/08/14 03:22:02;;;;;;;18.20;12.27;;;;;;;;;;4981726;28;20052;-72
2023/08/14 03:24:28;;;;;;;18.55;11.55;;;12.90;99.90;;;;;;4986711;28;20057;-71
2023/08/14 03:26:54;;;;;;;19.55;11.15;;;12.90;99.90;;;;;;5002816;28;20048;-72
2023/08/14 03:29:20;;;;;;;17.38;11.05;;;12.90;99.90;;;;;;4986650;28;20794;-72
2023/08/14 03:31:46;;;;;;;22.80;12.38;;;13.00;99.90;;;;;;5002793;28;20099;-72
2023/08/14 03:34:12;;;;;;;24.88;13.30;;;12.90;99.90;;;;;;5001579;28;20156;-74
2023/08/14 03:36:38;;;;;;;18.88;12.55;;;13.00;99.90;;;;;;5002946;28;20519;-73
2023/08/14 03:39:03;;;;;;;23.02;14.02;;;13.10;99.90;;;;;;4987032;28;21372;-75
2023/08/14 03:41:29;;;;;;;23.23;14.63;;;13.30;99.90;;;;;;4986977;28;20045;-71
2023/08/14 03:43:55;;;;;;;25.88;14.90;;;13.10;99.90;;;;;;4976783;28;20061;-73
2023/08/14 03:46:21;;;;;;;27.45;15.90;;;13.20;99.90;;;;;;5002302;28;20128;-72
2023/08/14 03:48:46;;;;;;;23.77;15.40;;;13.20;99.90;;;;;;4994559;28;20136;-72
2023/08/14 03:51:12;;;;;;;22.45;16.25;;;13.20;99.90;;;;;;4981314;28;20080;-72
2023/08/14 03:53:38;;;;;;;28.10;17.25;;;13.20;99.90;;;;;;4995945;28;20091;-72
2023/08/14 03:56:04;;;;;;;32.88;16.67;;;13.30;99.90;;;;;;5002032;28;20053;-74
2023/08/14 03:58:29;;;;;;;23.08;17.52;;;13.30;99.90;;;;;;4995839;28;20056;-74
2023/08/14 04:00:55;;;;;;;28.83;16.55;;;13.30;99.90;;;;;;4992137;28;20108;-72
2023/08/14 04:03:21;;;;;;;24.63;17.73;;;13.40;99.90;;;;;;4998376;28;20049;-73
2023/08/14 04:05:47;;;;;;;29.60;19.17;;;13.40;99.90;;;;;;5001950;28;20049;-74
2023/08/14 04:08:14;;;;;;;30.83;19.00;;;13.40;99.90;;;;;;5001791;28;20175;-73
2023/08/14 04:10:40;;;;;;;30.17;18.65;;;13.40;99.90;;;;;;4984548;28;20049;-73
2023/08/14 04:13:06;;;;;;;32.67;20.48;;;13.40;99.90;;;;;;4984872;28;20041;-73
2023/08/14 04:15:32;;;;;;;40.10;19.40;;;13.40;99.90;;;;;;4975182;28;20049;-73
2023/08/14 04:17:58;;;;;;;28.55;18.40;;;13.50;99.90;;;;;;4997912;28;20464;-73
2023/08/14 04:20:24;;;;;;;31.50;19.15;;;13.50;99.90;;;;;;4985291;28;20049;-73
2023/08/14 04:22:49;;;;;;;35.40;19.90;;;13.40;99.90;;;;;;5001369;28;20045;-74
2023/08/14 04:25:18;;;;;;;28.67;18.15;;;13.50;99.90;;;;;;5001954;28;20056;-74
2023/08/14 04:27:44;;;;;;;36.10;19.58;;;13.20;99.90;;;;;;5001609;28;20049;-73
2023/08/14 04:30:10;;;;;;;32.35;20.42;;;13.50;99.90;;;;;;5001486;28;20459;-74
2023/08/14 04:32:36;;;;;;;30.25;20.42;;;13.20;99.90;;;;;;5001420;28;20103;-73
2023/08/14 04:35:03;;;;;;;34.30;21.08;;;13.60;99.90;;;;;;5001359;28;20095;-73
2023/08/14 04:37:28;;;;;;;30.27;20.02;;;13.60;99.90;;;;;;4985115;28;20080;-73
2023/08/14 04:39:54;;;;;;;32.15;21.02;;;13.60;99.90;;;;;;5001073;28;20084;-73
2023/08/14 04:42:20;;;;;;;32.90;20.52;;;13.60;99.90;;;;;;5001509;28;20067;-72
2023/08/14 04:44:46;;;;;;;29.27;20.13;;;13.80;99.90;;;;;;4996832;28;20053;-74
2023/08/14 04:47:11;;;;;;;35.33;20.15;;;13.70;99.90;;;;;;4984020;28;20084;-73
2023/08/14 04:49:37;;;;;;;31.77;20.98;;;14.00;99.90;;;;;;5000911;28;20056;-73
2023/08/14 04:52:03;;;;;;;31.33;20.48;;;13.80;99.90;;;;;;5000249;28;20052;-73
2023/08/14 04:54:29;;;;;;;34.38;20.52;;;13.90;99.90;;;;;;5000432;28;20052;-72
2023/08/14 04:56:55;;;;;;;31.63;20.73;;;14.00;99.90;;;;;;4984171;28;20049;-73
2023/08/14 04:59:21;;;;;;;27.00;19.92;;;14.00;99.90;;;;;;4984176;28;20060;-72
2023/08/14 05:01:46;;;;;;;31.45;19.02;;;14.10;99.90;;;;;;4984076;28;20046;-72
2023/08/14 05:04:12;;;;;;;24.33;17.42;;;14.20;99.90;;;;;;4994566;28;20054;-71
2023/08/14 05:06:38;;;;;;;25.33;16.98;;;14.30;99.90;;;;;;5000525;28;20415;-71
2023/08/14 05:09:04;;;;;;;22.52;16.95;;;14.40;99.90;;;;;;5000466;28;20518;-71
2023/08/14 05:11:30;;;;;;;20.75;15.70;;;14.50;99.90;;;;;;4983981;28;20045;-72
2023/08/14 05:13:56;;;;;;;24.52;17.27;;;14.50;99.90;;;;;;4984399;28;20097;-71
2023/08/14 05:16:22;;;;;;;26.33;17.48;;;14.60;99.90;;;;;;4991269;28;20089;-70
2023/08/14 05:18:49;;;;;;;21.80;16.25;;;;;;;;;;4997609;28;20065;-70
2023/08/14 05:21:14;;;;;;;19.52;16.73;;;14.70;99.90;;;;;;4999184;28;20137;-72
2023/08/14 05:23:40;;;;;;;22.13;17.38;;;14.80;99.90;;;;;;4999545;28;20057;-69
2023/08/14 05:26:06;;;;;;;25.25;16.33;;;14.90;99.90;;;;;;4983856;28;20513;-69
2023/08/14 05:28:32;;;;;;;20.58;16.33;;;15.10;99.90;;;;;;5000572;28;20049;-70
2023/08/14 05:30:57;;;;;;;22.45;15.95;;;15.20;99.90;;;;;;4983471;28;20128;-69
2023/08/14 05:33:23;;;;;;;21.48;14.95;;;15.30;99.90;;;;;;4996746;28;20684;-70
2023/08/14 05:35:49;;;;;;;19.20;14.32;;;15.50;99.90;;;;;;5000234;28;20078;-71
2023/08/14 05:38:15;;;;;;;21.08;14.55;;;15.70;99.90;;;;;;5000298;28;20053;-70
2023/08/14 05:40:41;;;;;;;17.00;13.73;;;15.90;99.90;;;;;;4992702;28;20516;-69
2023/08/14 05:43:11;;;;;;;18.02;13.52;;;16.20;99.90;;;;;;4999988;28;20127;-70
2023/08/14 05:45:45;;;;;;;20.45;13.00;;;16.50;99.90;;;;;;5000122;28;20049;-70
2023/08/14 05:48:11;;;;;;;15.57;12.23;;;17.10;99.90;;;;;;5000769;28;20367;-71
2023/08/14 05:50:37;;;;;;;13.68;10.85;;;17.70;99.90;;;;;;5000647;28;20045;-70
2023/08/14 05:53:04;;;;;;;15.52;9.52;;;18.30;99.90;;;;;;4998991;28;20404;-69
2023/08/14 05:55:41;;;;;;;10.63;8.60;;;18.50;99.90;;;;;;4999359;28;20096;-69
2023/08/14 05:58:07;;;;;;;11.90;8.20;;;18.80;99.90;;;;;;4986419;28;20049;-71
2023/08/14 06:00:37;;;;;;;10.48;8.88;;;18.90;99.90;;;;;;5003236;28;20050;-70
2023/08/14 06:03:03;;;;;;;12.65;7.63;;;18.90;99.90;;;;;;5003101;28;20046;-71
2023/08/14 06:05:29;;;;;;;9.93;7.35;;;18.90;99.90;;;;;;5004551;28;20052;-69
2023/08/14 06:07:55;;;;;;;9.60;7.22;;;18.90;99.90;;;;;;5004052;28;20053;-70
2023/08/14 06:10:22;;;;;;;9.95;7.75;;;18.90;99.90;;;;;;4986214;28;20186;-70
2023/08/14 06:12:49;;;;;;;10.35;6.72;;;18.90;99.90;;;;;;5002955;28;20144;-71
2023/08/14 06:15:16;;;;;;;9.40;7.28;;;19.00;99.90;;;;;;4968118;28;20069;-70
2023/08/14 06:17:42;;;;;;;9.70;7.22;;;19.90;99.90;;;;;;4986263;28;20061;-71
2023/08/14 06:20:12;;;;;;;10.50;7.05;;;19.00;99.90;;;;;;4988574;28;20679;-72
2023/08/14 06:22:46;;;;;;;10.32;7.45;;;19.00;99.90;;;;;;4987040;28;20052;-75
2023/08/14 06:25:13;;;;;;;7.90;6.93;;;19.20;99.90;;;;;;5003529;28;20049;-71
2023/08/14 06:27:39;;;;;;;11.15;6.35;;;19.60;99.90;;;;;;5004097;28;20080;-76
2023/08/14 06:30:08;;;;;;;8.82;6.60;;;19.80;99.90;;;;;;4987619;28;20778;-75
2023/08/14 06:32:34;;;;;;;10.35;7.03;;;20.00;99.90;;;;;;4987421;28;20498;-73
2023/08/14 06:35:00;;;;;;;11.45;6.55;;;20.00;99.90;;;;;;4987394;28;20072;-74
2023/08/14 06:37:26;;;;;;;9.55;6.80;;;20.00;99.90;;;;;;5003178;28;20642;-71
2023/08/14 06:39:52;;;;;;;11.15;6.55;;;19.90;99.90;;;;;;5003273;28;20049;-73
2023/08/14 06:42:17;;;;;;;8.45;6.20;;;19.80;99.90;;;;;;4978903;28;20144;-73
2023/08/14 06:44:43;;;;;;;9.48;6.40;;;19.70;99.90;;;;;;4999733;28;20061;-72
2023/08/14 06:47:09;;;;;;;10.85;7.82;;;19.60;99.90;;;;;;4987493;28;20049;-74
2023/08/14 06:49:35;;;;;;;10.07;6.70;;;19.50;99.90;;;;;;5003645;28;20048;-73
2023/08/14 06:52:01;;;;;;;11.43;7.40;;;19.50;99.90;;;;;;4983458;28;20159;-71
2023/08/14 06:54:27;;;;;;;9.07;5.80;;;19.40;99.90;;;;;;5002861;28;20053;-71
2023/08/14 06:56:53;;;;;;;10.18;6.20;;;19.40;99.90;;;;;;4992538;28;20048;-72
2023/08/14 06:59:19;;;;;;;10.25;5.93;;;19.30;99.90;;;;;;5001775;28;20088;-74
2023/08/14 07:01:44;;;;;;;9.10;6.60;;;19.30;99.90;;;;;;5001926;28;20737;-72
2023/08/14 07:04:11;;;;;;;7.57;5.65;;;19.20;99.90;;;;;;5004685;28;20077;-73
2023/08/14 07:06:37;;;;;;;13.85;6.50;;;19.20;99.90;;;;;;4998247;28;20046;-74
2023/08/14 07:09:03;;;;;;;7.97;5.53;;;19.50;99.90;;;;;;4962133;28;20065;-73
2023/08/14 07:11:36;;;;;;;6.38;5.30;;;19.30;99.90;;;;;;4969429;28;21446;-76
2023/08/14 07:14:03;;;;;;;9.50;5.30;;;19.60;99.90;;;;;;4989716;28;20081;-74
2023/08/14 07:16:29;;;;;;;7.57;5.18;;;19.70;99.90;;;;;;4991261;28;20798;-71
2023/08/14 07:18:54;;;;;;;7.57;3.97;;;20.00;99.90;;;;;;4981308;28;20064;-71
2023/08/14 07:21:20;;;;;;;6.47;3.67;;;20.20;99.90;;;;;;4995314;28;20041;-71
2023/08/14 07:23:46;;;;;;;6.85;4.05;;;20.40;99.90;;;;;;5002534;28;20053;-72
2023/08/14 07:26:12;;;;;;;6.28;4.28;;;20.50;99.90;;;;;;5001876;28;20056;-71
2023/08/14 07:28:41;;;;;;;6.78;3.85;;;20.70;99.90;;;;;;4999032;28;20049;-71
2023/08/14 07:31:08;;;;;;;6.00;3.78;;;21.00;99.90;;;;;;4974587;28;20057;-71
2023/08/14 07:33:34;;;;;;;7.70;3.50;;;21.20;99.90;;;;;;4985018;28;20119;-72
2023/08/14 07:36:00;;;;;;;5.50;3.35;;;21.30;99.90;;;;;;5002137;28;20049;-73
2023/08/14 07:38:26;;;;;;;5.93;3.60;;;22.10;99.90;;;;;;5002576;28;20064;-71
2023/08/14 07:40:54;;;;;;;6.05;3.08;;;22.90;99.90;;;;;;5002268;28;20045;-72
2023/08/14 07:43:19;;;;;;;5.95;2.20;;;22.90;99.90;;;;;;4982960;28;20049;-72
2023/08/14 07:45:45;;;;;;;4.65;2.05;;;23.90;99.90;;;;;;5001980;28;20053;-75
2023/08/14 07:48:11;;;;;;;6.03;2.10;;;24.90;99.90;;;;;;4985336;28;20148;-71
2023/08/14 07:50:37;;;;;;;3.92;1.42;;;26.00;99.90;;;;;;5001104;28;20117;-70
2023/08/14 07:53:03;;;;;;;4.70;1.30;;;27.00;99.90;;;;;;4998916;28;20187;-71
2023/08/14 07:55:28;;;;;;;3.75;1.38;;;27.50;99.90;;;;;;4987947;28;20131;-71
2023/08/14 07:57:54;;;;;;;6.15;1.00;;;28.20;99.90;;;;;;4996465;28;20487;-71
2023/08/14 08:00:21;;;;;;;3.30;1.00;;;29.10;99.90;;;;;;4971179;28;20077;-76
2023/08/14 08:02:47;;;;;;;3.53;0.75;;;30.00;99.60;;;;;;4998544;28;20076;-69
2023/08/14 08:05:13;;;;;;;2.22;0.65;;;30.90;97.80;;;;;;4998055;28;20049;-69
2023/08/14 08:07:39;;;;;;;3.97;0.60;;;31.40;95.50;;;;;;4989431;28;20280;-72
2023/08/14 08:10:05;;;;;;;3.75;0.80;;;31.20;94.00;;;;;;4988573;23;20057;-71
2023/08/14 08:12:31;;;;;;;3.92;0.50;;;30.80;92.60;;;;;;4979150;28;20072;-71
2023/08/14 08:14:56;;;;;;;4.18;0.68;;;30.90;92.80;;;;;;4993782;28;20080;-71
2023/08/14 08:17:22;;;;;;;3.80;0.50;;;31.50;93.10;;;;;;4979107;28;20085;-71
2023/08/14 08:19:48;;;;;;;3.13;0.50;;;32.10;92.00;;;;;;5001817;28;20056;-71
2023/08/14 08:22:14;;;;;;;3.40;0.52;;;32.50;91.30;;;;;;4993754;28;20128;-67
2023/08/14 08:24:40;;;;;;;3.30;0.40;;;32.70;90.90;;;;;;4994768;28;20128;-75
2023/08/14 08:27:05;;;;;;;5.45;0.50;;;33.00;90.40;;;;;;5004304;28;20045;-66
2023/08/14 08:29:31;;;;;;;2.05;0.38;;;33.10;88.70;;;;;;4970513;28;20462;-72
2023/08/14 08:31:57;;;;;;;2.33;0.30;;;33.50;89.10;;;;;;4991048;28;20127;-72
2023/08/14 08:34:23;;;;;;;1.85;0.43;;;33.80;87.20;;;;;;4975036;28;20052;-72
2023/08/14 08:36:48;;;;;;;3.03;0.50;;;34.10;86.20;;;;;;5000918;28;20050;-73
2023/08/14 08:39:14;;;;;;;2.70;0.65;;;34.60;83.90;;;;;;4997735;28;20053;-71
2023/08/14 08:41:44;;;;;;;2.25;0.40;;;35.10;81.40;;;;;;4978875;28;20050;-74
2023/08/14 08:44:29;;;;;;;1.48;0.20;;;35.60;78.40;;;;;;4982429;28;20161;-74
2023/08/14 08:49:47;;;;;;;3.33;0.50;;;36.20;75.00;;;;;;4982439;28;20131;-76
2023/08/14 08:52:14;;;;;;;5.38;0.70;;;36.50;74.10;;;;;;4965032;28;20134;-74
2023/08/14 08:54:40;;;;;;;3.78;0.57;;;36.60;71.90;;;;;;4966883;28;20102;-71
2023/08/14 08:57:08;;;;;;;5.07;0.50;;;36.70;69.70;;;;;;4970258;28;20077;-72
2023/08/14 09:03:10;;;;;;;2.50;0.57;;;36.20;66.90;;;;;;5027619;22;20831;-74
2023/08/14 09:05:37;;;;;;;3.40;0.55;;;35.30;67.40;;;;;;5002206;28;20479;-73
2023/08/14 09:08:03;;;;;;;3.88;0.82;;;34.50;66.90;;;;;;5005527;28;20045;-72
2023/08/14 09:10:29;;;;;;;5.70;0.70;;;33.60;67.50;;;;;;4982356;28;20061;-72
2023/08/14 09:12:59;;;;;;;2.47;0.47;;;33.00;68.00;;;;;;4999368;28;20053;-71
2023/08/14 09:15:25;;;;;;;3.60;0.60;;;32.60;68.20;;;;;;5011189;22;20038;-72
2023/08/14 09:17:53;;;;;;;2.53;0.47;;;32.60;69.70;;;;;;4982192;28;20573;-76
2023/08/14 09:22:48;;;;;;;3.65;1.00;;;33.40;70.00;;;;;;5019478;28;20045;-72
2023/08/14 09:25:15;;;;;;;5.78;0.85;;;33.80;68.30;;;;;;5023692;22;20046;-76
2023/08/14 09:27:42;;;;;;;5.50;0.70;;;34.10;68.50;;;;;;4986270;28;20088;-70
2023/08/14 09:30:11;;;;;;;4.18;0.65;;;34.30;66.60;;;;;;4986413;28;20061;-72
2023/08/14 09:32:38;;;;;;;3.97;0.40;;;34.70;67.40;;;;;;5005483;23;20058;-74
2023/08/14 09:35:04;;;;;;;4.20;0.57;;;35.00;66.80;;;;;;4969454;28;20934;-73
2023/08/14 09:37:31;;;;;;;3.85;0.73;;;35.30;67.80;;;;;;4947746;28;20112;-74
2023/08/14 09:40:17;;;;;;;4.70;0.80;;;35.40;65.00;;;;;;4976963;28;20100;-70
2023/08/14 09:42:48;;;;;;;5.80;0.60;;;35.60;64.00;;;;;;4967838;28;20055;-72
2023/08/14 09:45:15;;;;;;;4.70;0.82;;;35.40;64.20;;;;;;4960700;28;20057;-70
2023/08/14 09:47:43;;;;;;;3.00;0.47;;;35.30;62.60;;;;;;4978576;28;20547;-72
2023/08/14 09:50:09;;;;;;;4.32;0.40;;;35.30;62.40;;;;;;4949995;28;20057;-72
2023/08/14 09:52:35;;;;;;;4.22;0.98;;;35.30;62.30;;;;;;5010945;23;20135;-73
2023/08/14 09:55:02;;;;;;;5.38;0.70;;;35.30;62.70;;;;;;5009331;23;20058;-74
2023/08/14 09:57:28;;;;;;;3.92;0.50;;;35.40;63.40;;;;;;4999414;28;20053;-71
2023/08/14 09:59:54;;;;;;;2.70;0.75;;;35.40;64.40;;;;;;4983576;28;20046;-74
2023/08/14 10:02:23;;;;;;;3.72;0.70;;;35.40;63.60;;;;;;4997917;28;20670;-78
2023/08/14 10:04:49;;;;;;;3.63;0.60;;;35.20;62.50;;;;;;4980564;28;21106;-71
2023/08/14 10:07:23;;;;;;;4.20;0.30;;;34.70;62.90;;;;;;4979243;28;20551;-72
2023/08/14 10:09:55;;;;;;;3.95;0.60;;;34.60;64.60;;;;;;4988551;28;20551;-72
2023/08/14 10:12:29;;;;;;;2.83;0.40;;;34.60;63.90;;;;;;4975399;28;20093;-72
2023/08/14 10:15:13;;;;;;;3.85;0.50;;;34.70;62.90;;;;;;4975198;28;20050;-70
2023/08/14 10:17:49;;;;;;;4.30;0.40;;;34.70;63.60;;;;;;4990255;28;20060;-74
2023/08/14 10:20:18;;;;;;;3.03;0.47;;;34.60;62.10;;;;;;4991989;28;20048;-74
2023/08/14 10:22:46;;;;;;;3.33;0.50;;;34.60;62.40;;;;;;4990798;28;20077;-70
2023/08/14 10:25:12;;;;;;;3.55;0.45;;;34.50;62.10;;;;;;4971248;28;20054;-75
2023/08/14 10:27:39;;;;;;;3.42;0.75;;;34.30;60.00;;;;;;4991474;28;20046;-80
2023/08/14 10:30:05;;;;;;;4.32;0.65;;;34.30;61.70;;;;;;4981434;28;20061;-77
2023/08/14 10:32:32;;;;;;;3.13;0.40;;;34.30;61.20;;;;;;4980746;28;20472;-76
2023/08/14 10:34:58;;;;;;;5.18;0.60;;;34.10;60.30;;;;;;4979554;28;20054;-73
2023/08/14 10:37:40;;;;;;;3.25;0.50;;;34.10;62.00;;;;;;4980916;28;20050;-78
2023/08/14 10:40:28;;;;;;;2.25;0.30;;;34.10;61.60;;;;;;4996344;28;20084;-79
2023/08/14 10:42:58;;;;;;;2.33;0.43;;;34.10;62.20;;;;;;4979936;28;20743;-85
2023/08/14 10:45:28;;;;;;;2.83;0.30;;;34.00;61.90;;;;;;4999262;28;20050;-79
2023/08/14 10:47:59;;;;;;;3.30;0.93;;;34.10;62.60;;;;;;5000339;28;20069;-77
2023/08/14 10:50:28;;;;;;;6.18;1.65;;;33.90;62.50;;;;;;5000973;28;20565;-73
2023/08/14 10:52:55;;;;;;;3.80;0.50;;;33.50;63.50;;;;;;4984298;28;20049;-78
2023/08/14 10:55:44;;;;;;;4.25;0.50;;;33.00;61.90;;;;;;4982615;28;20089;-77
2023/08/14 10:58:31;;;;;;;2.78;0.50;;;32.60;62.80;;;;;;4998612;28;20080;-77
2023/08/14 11:01:05;;;;;;;4.97;0.70;;;32.10;63.40;;;;;;4998736;28;20133;-78
2023/08/14 11:03:53;;;;;;;4.28;0.55;;;31.70;63.90;;;;;;4995466;28;20102;-78
2023/08/14 11:06:45;;;;;;;4.35;0.55;;;31.30;64.40;;;;;;4992671;28;20053;-80
2023/08/14 11:09:11;;;;;;;3.50;0.32;;;30.60;67.50;;;;;;4995408;28;20046;-79
2023/08/14 11:11:43;;;;;;;3.90;0.50;;;30.30;67.60;;;;;;4998169;28;20061;-69
2023/08/14 11:14:09;;;;;;;6.97;0.95;;;30.40;65.20;;;;;;5000519;28;20088;-76
2023/08/14 11:16:35;;;;;;;3.15;0.50;;;30.10;66.20;;;;;;5001587;28;20046;-74
2023/08/14 11:19:01;;;;;;;3.30;0.40;;;29.80;66.00;;;;;;4987158;28;20054;-76
2023/08/14 11:21:27;;;;;;;3.58;0.70;;;29.50;65.50;;;;;;5001081;28;20581;-76
2023/08/14 11:23:53;;;;;;;3.92;1.23;;;29.30;67.50;;;;;;5000674;28;20049;-74
2023/08/14 11:26:19;;;;;;;5.00;0.77;;;29.00;69.10;;;;;;5000447;28;20041;-75
2023/08/14 11:28:44;;;;;;;5.43;0.50;;;28.80;68.70;;;;;;4997697;28;20046;-75
2023/08/14 11:31:12;;;;;;;3.92;0.50;;;28.10;72.10;;;;;;4984353;28;20080;-75
2023/08/14 11:33:38;;;;;;;3.85;0.40;;;28.40;70.60;;;;;;4982776;28;20747;-78
2023/08/14 11:36:08;;;;;;;3.15;0.50;;;25.40;67.20;;;;;;4978270;28;20050;-71
2023/08/14 11:38:33;;;;;;;2.75;0.40;;;28.30;69.90;;;;;;4983092;28;20049;-71
2023/08/14 11:41:00;;;;;;;5.53;0.60;;;28.10;71.10;;;;;;4999651;28;20061;-75
2023/08/14 11:43:25;;;;;;;3.67;0.52;;;27.90;72.60;;;;;;4999155;28;20534;-80
2023/08/14 11:45:52;;;;;;;3.78;0.93;;;;;;;;;;4984152;28;20081;-75
2023/08/14 11:48:19;;;;;;;3.00;0.55;;;27.40;72.80;;;;;;4984035;28;20049;-74
2023/08/14 11:50:48;;;;;;;5.60;0.70;;;28.00;72.80;;;;;;4996443;28;20049;-72
2023/08/14 11:55:40;;;;;;;5.32;0.70;;;27.10;74.00;;;;;;5025635;22;20068;-72
2023/08/14 11:58:10;;;;;;;2.78;0.40;;;27.10;74.90;;;;;;5023256;22;20053;-79
2023/08/14 12:00:36;;;;;;;5.20;0.57;;;27.00;74.90;;;;;;4981610;28;20041;-73
2023/08/14 12:03:02;;;;;;;2.58;0.43;;;27.00;75.10;;;;;;4977783;28;20415;-77
2023/08/14 12:05:28;;;;;;;7.82;0.73;;;27.10;74.70;;;;;;4980913;28;20076;-75
2023/08/14 12:07:59;;;;;;;2.10;0.30;;;27.00;73.90;;;;;;4984238;28;20057;-72
2023/08/14 12:10:30;;;;;;;4.00;1.30;;;26.90;74.00;;;;;;4983423;28;20037;-75
2023/08/14 12:12:56;;;;;;;5.57;1.20;;;26.80;74.50;;;;;;5000956;28;20048;-75
2023/08/14 12:15:22;;;;;;;1.92;0.35;;;27.00;77.90;;;;;;4964191;28;20121;-76
2023/08/14 12:17:48;;;;;;;1.85;0.40;;;26.80;74.00;;;;;;4958552;28;20776;-76
2023/08/14 12:20:14;;;;;;;7.07;0.70;;;26.80;73.80;;;;;;4982664;28;20046;-75
2023/08/14 12:22:40;;;;;;;3.40;0.50;;;26.80;74.10;;;;;;4982565;28;20046;-76
2023/08/14 12:25:08;;;;;;;4.00;0.90;;;26.70;79.00;;;;;;4983179;28;20056;-77
2023/08/14 12:27:34;;;;;;;4.80;0.60;;;27.90;79.20;;;;;;4977011;28;20050;-74
2023/08/14 12:30:01;;;;;;;4.13;0.98;;;26.80;75.70;;;;;;4999282;28;20045;-74
2023/08/14 12:32:27;;;;;;;3.83;0.50;;;26.30;75.40;;;;;;4965864;28;20566;-76
2023/08/14 12:34:53;;;;;;;3.45;0.45;;;26.50;75.70;;;;;;4983932;28;20137;-76
2023/08/14 12:37:19;;;;;;;2.63;0.40;;;;;;;;;;4981968;28;20286;-75
2023/08/14 12:39:52;;;;;;;5.18;0.52;;;26.50;75.40;;;;;;4980668;28;20128;-76
2023/08/14 12:42:18;;;;;;;3.88;0.40;;;26.40;80.40;;;;;;4977596;28;20955;-76
2023/08/14 12:44:44;;;;;;;3.90;0.43;;;26.50;76.70;;;;;;4983422;28;20057;-76
2023/08/14 12:47:10;;;;;;;2.25;0.40;;;26.50;75.10;;;;;;4966776;28;20420;-75
2023/08/14 12:49:36;;;;;;;4.13;0.77;;;26.50;76.20;;;;;;4982019;28;20136;-75
2023/08/14 12:52:03;;;;;;;1.85;0.45;;;26.50;76.80;;;;;;4981410;28;20081;-76